sensor_id;sensor_type;location;lat;lon;timestamp;P1;durP1;ratioP1;P2;durP2;ratioP2
78908;SDS011;68298;37.368;127.108;2023-04-25T00:01:25;20.00;;;4.63;;
78908;SDS011;68298;37.368;127.108;2023-04-25T00:03:56;13.05;;;4.55;;
78908;SDS011;68298;37.368;127.108;2023-04-25T00:06:26;13.45;;;4.72;;
78908;SDS011;68298;37.368;127.108;2023-04-25T00:08:58;15.85;;;4.80;;
78908;SDS011;68298;37.368;127.108;2023-04-25T00:11:29;14.45;;;4.45;;
78908;SDS011;68298;37.368;127.108;2023-04-25T00:14:00;15.82;;;4.63;;
78908;SDS011;68298;37.368;127.108;2023-04-25T00:16:31;19.50;;;4.20;;
78908;SDS011;68298;37.368;127.108;2023-04-25T00:19:03;14.25;;;4.80;;
78908;SDS011;68298;37.368;127.108;2023-04-25T00:21:34;16.42;;;4.28;;
78908;SDS011;68298;37.368;127.108;2023-04-25T00:24:07;30.27;;;5.38;;
78908;SDS011;68298;37.368;127.108;2023-04-25T00:26:38;14.05;;;3.88;;
78908;SDS011;68298;37.368;127.108;2023-04-25T00:29:08;10.93;;;4.43;;
78908;SDS011;68298;37.368;127.108;2023-04-25T00:31:39;10.05;;;4.10;;
78908;SDS011;68298;37.368;127.108;2023-04-25T00:34:10;14.90;;;4.25;;
78908;SDS011;68298;37.368;127.108;2023-04-25T00:36:40;7.85;;;3.97;;
78908;SDS011;68298;37.368;127.108;2023-04-25T00:39:11;10.80;;;4.82;;
78908;SDS011;68298;37.368;127.108;2023-04-25T00:41:42;12.20;;;4.72;;
78908;SDS011;68298;37.368;127.108;2023-04-25T00:44:15;12.68;;;4.45;;
78908;SDS011;68298;37.368;127.108;2023-04-25T00:46:47;11.30;;;4.38;;
78908;SDS011;68298;37.368;127.108;2023-04-25T00:49:18;11.57;;;4.68;;
78908;SDS011;68298;37.368;127.108;2023-04-25T00:51:49;7.18;;;4.00;;
78908;SDS011;68298;37.368;127.108;2023-04-25T00:54:19;6.72;;;3.97;;
78908;SDS011;68298;37.368;127.108;2023-04-25T00:56:50;8.25;;;3.97;;
78908;SDS011;68298;37.368;127.108;2023-04-25T00:59:21;10.60;;;4.72;;
78908;SDS011;68298;37.368;127.108;2023-04-25T01:01:51;7.50;;;4.00;;
78908;SDS011;68298;37.368;127.108;2023-04-25T01:04:22;9.90;;;4.05;;
78908;SDS011;68298;37.368;127.108;2023-04-25T01:06:53;15.00;;;4.50;;
78908;SDS011;68298;37.368;127.108;2023-04-25T01:09:24;7.82;;;3.85;;
78908;SDS011;68298;37.368;127.108;2023-04-25T01:11:55;9.68;;;3.95;;
78908;SDS011;68298;37.368;127.108;2023-04-25T01:14:27;9.00;;;4.05;;
78908;SDS011;68298;37.368;127.108;2023-04-25T01:16:58;9.98;;;4.45;;
78908;SDS011;68298;37.368;127.108;2023-04-25T01:19:29;6.60;;;3.85;;
78908;SDS011;68298;37.368;127.108;2023-04-25T01:21:59;9.80;;;4.35;;
78908;SDS011;68298;37.368;127.108;2023-04-25T01:24:31;9.52;;;4.35;;
78908;SDS011;68298;37.368;127.108;2023-04-25T01:27:02;9.63;;;4.38;;
78908;SDS011;68298;37.368;127.108;2023-04-25T01:29:33;17.55;;;4.30;;
78908;SDS011;68298;37.368;127.108;2023-04-25T01:32:05;7.45;;;3.85;;
78908;SDS011;68298;37.368;127.108;2023-04-25T01:34:38;7.85;;;3.78;;
78908;SDS011;68298;37.368;127.108;2023-04-25T01:37:09;10.93;;;4.28;;
78908;SDS011;68298;37.368;127.108;2023-04-25T01:39:39;7.82;;;4.03;;
78908;SDS011;68298;37.368;127.108;2023-04-25T01:42:10;10.15;;;4.43;;
78908;SDS011;68298;37.368;127.108;2023-04-25T01:44:42;8.77;;;3.90;;
78908;SDS011;68298;37.368;127.108;2023-04-25T01:47:13;6.90;;;4.15;;
78908;SDS011;68298;37.368;127.108;2023-04-25T01:49:44;9.10;;;3.90;;
78908;SDS011;68298;37.368;127.108;2023-04-25T01:52:15;5.57;;;3.20;;
78908;SDS011;68298;37.368;127.108;2023-04-25T01:54:46;6.68;;;3.70;;
78908;SDS011;68298;37.368;127.108;2023-04-25T01:57:17;7.18;;;4.35;;
78908;SDS011;68298;37.368;127.108;2023-04-25T01:59:48;8.70;;;4.30;;
78908;SDS011;68298;37.368;127.108;2023-04-25T02:02:37;8.60;;;4.85;;
78908;SDS011;68298;37.368;127.108;2023-04-25T02:05:28;10.07;;;4.60;;
78908;SDS011;68298;37.368;127.108;2023-04-25T02:08:07;9.93;;;4.82;;
78908;SDS011;68298;37.368;127.108;2023-04-25T02:10:38;8.20;;;4.53;;
78908;SDS011;68298;37.368;127.108;2023-04-25T02:13:17;11.43;;;4.80;;
78908;SDS011;68298;37.368;127.108;2023-04-25T02:16:14;11.48;;;4.82;;
78908;SDS011;68298;37.368;127.108;2023-04-25T02:18:44;15.95;;;4.43;;
78908;SDS011;68298;37.368;127.108;2023-04-25T02:21:16;12.90;;;4.72;;
78908;SDS011;68298;37.368;127.108;2023-04-25T02:23:46;10.65;;;4.35;;
78908;SDS011;68298;37.368;127.108;2023-04-25T02:26:19;9.25;;;4.57;;
78908;SDS011;68298;37.368;127.108;2023-04-25T02:28:50;13.88;;;4.85;;
78908;SDS011;68298;37.368;127.108;2023-04-25T02:31:21;11.25;;;4.07;;
78908;SDS011;68298;37.368;127.108;2023-04-25T02:33:51;10.05;;;4.60;;
78908;SDS011;68298;37.368;127.108;2023-04-25T02:36:22;8.35;;;4.35;;
78908;SDS011;68298;37.368;127.108;2023-04-25T02:39:17;12.70;;;4.80;;
78908;SDS011;68298;37.368;127.108;2023-04-25T02:41:48;7.80;;;4.50;;
78908;SDS011;68298;37.368;127.108;2023-04-25T02:44:21;8.10;;;4.50;;
78908;SDS011;68298;37.368;127.108;2023-04-25T02:47:04;9.50;;;4.30;;
78908;SDS011;68298;37.368;127.108;2023-04-25T02:49:35;7.07;;;4.40;;
78908;SDS011;68298;37.368;127.108;2023-04-25T02:52:06;7.53;;;3.90;;
78908;SDS011;68298;37.368;127.108;2023-04-25T02:54:36;9.10;;;4.25;;
78908;SDS011;68298;37.368;127.108;2023-04-25T02:57:09;8.87;;;4.20;;
78908;SDS011;68298;37.368;127.108;2023-04-25T02:59:39;6.75;;;4.00;;
78908;SDS011;68298;37.368;127.108;2023-04-25T03:02:09;8.02;;;4.47;;
78908;SDS011;68298;37.368;127.108;2023-04-25T03:04:40;5.35;;;3.63;;
78908;SDS011;68298;37.368;127.108;2023-04-25T03:07:11;9.88;;;4.45;;
78908;SDS011;68298;37.368;127.108;2023-04-25T03:09:41;5.05;;;3.58;;
78908;SDS011;68298;37.368;127.108;2023-04-25T03:12:12;8.07;;;4.03;;
78908;SDS011;68298;37.368;127.108;2023-04-25T03:14:43;8.98;;;4.35;;
78908;SDS011;68298;37.368;127.108;2023-04-25T03:17:14;10.35;;;4.07;;
78908;SDS011;68298;37.368;127.108;2023-04-25T03:19:45;6.88;;;4.47;;
78908;SDS011;68298;37.368;127.108;2023-04-25T03:22:17;8.25;;;4.40;;
78908;SDS011;68298;37.368;127.108;2023-04-25T03:24:48;7.57;;;4.18;;
78908;SDS011;68298;37.368;127.108;2023-04-25T03:27:19;9.23;;;4.88;;
78908;SDS011;68298;37.368;127.108;2023-04-25T03:29:50;9.60;;;4.40;;
78908;SDS011;68298;37.368;127.108;2023-04-25T03:32:21;8.25;;;4.18;;
78908;SDS011;68298;37.368;127.108;2023-04-25T03:34:51;13.80;;;4.40;;
78908;SDS011;68298;37.368;127.108;2023-04-25T03:37:24;12.00;;;4.63;;
78908;SDS011;68298;37.368;127.108;2023-04-25T03:39:55;7.43;;;4.70;;
78908;SDS011;68298;37.368;127.108;2023-04-25T03:42:37;7.68;;;4.25;;
78908;SDS011;68298;37.368;127.108;2023-04-25T03:45:11;6.40;;;4.00;;
78908;SDS011;68298;37.368;127.108;2023-04-25T03:47:42;10.35;;;4.30;;
78908;SDS011;68298;37.368;127.108;2023-04-25T03:50:13;7.80;;;4.18;;
78908;SDS011;68298;37.368;127.108;2023-04-25T03:52:44;13.68;;;4.85;;
78908;SDS011;68298;37.368;127.108;2023-04-25T03:55:15;7.28;;;4.32;;
78908;SDS011;68298;37.368;127.108;2023-04-25T03:57:46;12.85;;;4.80;;
78908;SDS011;68298;37.368;127.108;2023-04-25T04:00:18;11.50;;;4.30;;
78908;SDS011;68298;37.368;127.108;2023-04-25T04:02:51;8.75;;;4.47;;
78908;SDS011;68298;37.368;127.108;2023-04-25T04:05:22;12.80;;;5.03;;
78908;SDS011;68298;37.368;127.108;2023-04-25T04:07:55;9.43;;;4.05;;
78908;SDS011;68298;37.368;127.108;2023-04-25T04:10:26;8.45;;;4.60;;
78908;SDS011;68298;37.368;127.108;2023-04-25T04:12:57;11.18;;;4.85;;
78908;SDS011;68298;37.368;127.108;2023-04-25T04:15:28;13.27;;;5.25;;
78908;SDS011;68298;37.368;127.108;2023-04-25T04:18:01;11.70;;;5.32;;
78908;SDS011;68298;37.368;127.108;2023-04-25T04:20:32;17.42;;;4.65;;
78908;SDS011;68298;37.368;127.108;2023-04-25T04:23:03;15.05;;;4.88;;
78908;SDS011;68298;37.368;127.108;2023-04-25T04:25:35;34.63;;;6.20;;
78908;SDS011;68298;37.368;127.108;2023-04-25T04:28:51;35.47;;;6.57;;
78908;SDS011;68298;37.368;127.108;2023-04-25T04:31:44;31.38;;;5.53;;
78908;SDS011;68298;37.368;127.108;2023-04-25T04:34:15;32.85;;;5.80;;
78908;SDS011;68298;37.368;127.108;2023-04-25T04:36:48;33.45;;;6.05;;
78908;SDS011;68298;37.368;127.108;2023-04-25T04:39:19;27.98;;;5.75;;
78908;SDS011;68298;37.368;127.108;2023-04-25T04:42:10;17.52;;;5.43;;
78908;SDS011;68298;37.368;127.108;2023-04-25T04:45:03;17.23;;;5.00;;
78908;SDS011;68298;37.368;127.108;2023-04-25T04:47:44;14.95;;;5.10;;
78908;SDS011;68298;37.368;127.108;2023-04-25T04:50:34;154.38;;;14.13;;
78908;SDS011;68298;37.368;127.108;2023-04-25T04:53:05;143.75;;;12.18;;
78908;SDS011;68298;37.368;127.108;2023-04-25T04:55:45;89.85;;;10.70;;
78908;SDS011;68298;37.368;127.108;2023-04-25T04:58:45;75.53;;;9.02;;
78908;SDS011;68298;37.368;127.108;2023-04-25T05:01:40;596.63;;;47.10;;
78908;SDS011;68298;37.368;127.108;2023-04-25T05:04:34;404.45;;;34.35;;
78908;SDS011;68298;37.368;127.108;2023-04-25T05:07:19;438.15;;;37.67;;
78908;SDS011;68298;37.368;127.108;2023-04-25T05:10:24;298.92;;;27.33;;
78908;SDS011;68298;37.368;127.108;2023-04-25T05:13:35;227.65;;;22.23;;
78908;SDS011;68298;37.368;127.108;2023-04-25T05:16:37;177.68;;;18.33;;
78908;SDS011;68298;37.368;127.108;2023-04-25T05:19:23;154.73;;;16.42;;
78908;SDS011;68298;37.368;127.108;2023-04-25T05:22:29;94.80;;;13.55;;
78908;SDS011;68298;37.368;127.108;2023-04-25T05:25:11;135.82;;;12.45;;
78908;SDS011;68298;37.368;127.108;2023-04-25T05:28:00;115.72;;;12.15;;
78908;SDS011;68298;37.368;127.108;2023-04-25T05:30:49;97.00;;;12.13;;
78908;SDS011;68298;37.368;127.108;2023-04-25T05:33:27;68.63;;;11.32;;
78908;SDS011;68298;37.368;127.108;2023-04-25T05:35:58;134.70;;;13.90;;
78908;SDS011;68298;37.368;127.108;2023-04-25T05:38:33;98.88;;;10.68;;
78908;SDS011;68298;37.368;127.108;2023-04-25T05:41:21;56.10;;;8.73;;
78908;SDS011;68298;37.368;127.108;2023-04-25T05:43:59;91.43;;;11.02;;
78908;SDS011;68298;37.368;127.108;2023-04-25T05:46:52;55.25;;;8.57;;
78908;SDS011;68298;37.368;127.108;2023-04-25T05:49:54;47.83;;;8.50;;
78908;SDS011;68298;37.368;127.108;2023-04-25T05:52:57;57.83;;;8.77;;
78908;SDS011;68298;37.368;127.108;2023-04-25T05:55:31;42.83;;;7.80;;
78908;SDS011;68298;37.368;127.108;2023-04-25T05:58:15;31.17;;;7.18;;
78908;SDS011;68298;37.368;127.108;2023-04-25T06:00:46;35.13;;;6.82;;
78908;SDS011;68298;37.368;127.108;2023-04-25T06:03:17;46.00;;;7.82;;
78908;SDS011;68298;37.368;127.108;2023-04-25T06:05:52;37.72;;;6.38;;
78908;SDS011;68298;37.368;127.108;2023-04-25T06:08:23;19.27;;;6.70;;
78908;SDS011;68298;37.368;127.108;2023-04-25T06:10:53;15.07;;;5.55;;
78908;SDS011;68298;37.368;127.108;2023-04-25T06:13:24;27.30;;;6.22;;
78908;SDS011;68298;37.368;127.108;2023-04-25T06:15:55;21.70;;;6.47;;
78908;SDS011;68298;37.368;127.108;2023-04-25T06:18:27;16.77;;;5.75;;
78908;SDS011;68298;37.368;127.108;2023-04-25T06:20:57;14.70;;;5.18;;
78908;SDS011;68298;37.368;127.108;2023-04-25T06:23:28;18.02;;;5.30;;
78908;SDS011;68298;37.368;127.108;2023-04-25T06:26:03;15.00;;;4.55;;
78908;SDS011;68298;37.368;127.108;2023-04-25T06:28:37;13.88;;;5.13;;
78908;SDS011;68298;37.368;127.108;2023-04-25T06:31:08;11.50;;;5.05;;
78908;SDS011;68298;37.368;127.108;2023-04-25T06:33:42;13.95;;;4.70;;
78908;SDS011;68298;37.368;127.108;2023-04-25T06:36:12;16.15;;;4.90;;
78908;SDS011;68298;37.368;127.108;2023-04-25T06:38:47;10.98;;;4.47;;
78908;SDS011;68298;37.368;127.108;2023-04-25T06:41:17;14.00;;;4.80;;
78908;SDS011;68298;37.368;127.108;2023-04-25T06:43:50;13.70;;;4.38;;
78908;SDS011;68298;37.368;127.108;2023-04-25T06:46:34;20.67;;;4.95;;
78908;SDS011;68298;37.368;127.108;2023-04-25T06:49:05;9.48;;;4.88;;
78908;SDS011;68298;37.368;127.108;2023-04-25T06:51:37;7.20;;;4.28;;
78908;SDS011;68298;37.368;127.108;2023-04-25T06:54:08;14.13;;;4.47;;
78908;SDS011;68298;37.368;127.108;2023-04-25T06:56:47;11.02;;;4.32;;
78908;SDS011;68298;37.368;127.108;2023-04-25T06:59:17;11.40;;;4.80;;
78908;SDS011;68298;37.368;127.108;2023-04-25T07:01:49;17.02;;;5.15;;
78908;SDS011;68298;37.368;127.108;2023-04-25T07:04:24;27.48;;;4.90;;
78908;SDS011;68298;37.368;127.108;2023-04-25T07:06:57;29.50;;;5.22;;
78908;SDS011;68298;37.368;127.108;2023-04-25T07:09:52;23.75;;;4.65;;
78908;SDS011;68298;37.368;127.108;2023-04-25T07:12:22;16.55;;;4.68;;
78908;SDS011;68298;37.368;127.108;2023-04-25T07:14:53;17.58;;;4.50;;
78908;SDS011;68298;37.368;127.108;2023-04-25T07:17:23;16.23;;;4.60;;
78908;SDS011;68298;37.368;127.108;2023-04-25T07:19:54;15.52;;;4.18;;
78908;SDS011;68298;37.368;127.108;2023-04-25T07:22:26;13.77;;;4.40;;
78908;SDS011;68298;37.368;127.108;2023-04-25T07:24:56;12.45;;;4.45;;
78908;SDS011;68298;37.368;127.108;2023-04-25T07:27:28;18.25;;;4.43;;
78908;SDS011;68298;37.368;127.108;2023-04-25T07:30:09;10.07;;;4.00;;
78908;SDS011;68298;37.368;127.108;2023-04-25T07:32:40;11.75;;;4.30;;
78908;SDS011;68298;37.368;127.108;2023-04-25T07:35:11;9.15;;;4.30;;
78908;SDS011;68298;37.368;127.108;2023-04-25T07:37:41;10.77;;;4.43;;
78908;SDS011;68298;37.368;127.108;2023-04-25T07:40:14;12.80;;;4.53;;
78908;SDS011;68298;37.368;127.108;2023-04-25T07:42:50;11.82;;;4.68;;
78908;SDS011;68298;37.368;127.108;2023-04-25T07:45:27;11.85;;;4.18;;
78908;SDS011;68298;37.368;127.108;2023-04-25T07:47:58;12.02;;;4.80;;
78908;SDS011;68298;37.368;127.108;2023-04-25T07:50:31;11.55;;;4.18;;
78908;SDS011;68298;37.368;127.108;2023-04-25T07:53:02;10.15;;;4.15;;
78908;SDS011;68298;37.368;127.108;2023-04-25T07:55:40;9.55;;;4.13;;
78908;SDS011;68298;37.368;127.108;2023-04-25T07:58:17;9.20;;;4.90;;
78908;SDS011;68298;37.368;127.108;2023-04-25T08:00:55;8.93;;;4.15;;
78908;SDS011;68298;37.368;127.108;2023-04-25T08:03:34;6.45;;;4.07;;
78908;SDS011;68298;37.368;127.108;2023-04-25T08:06:12;6.93;;;4.07;;
78908;SDS011;68298;37.368;127.108;2023-04-25T08:08:59;7.18;;;4.32;;
78908;SDS011;68298;37.368;127.108;2023-04-25T08:11:36;11.05;;;4.30;;
78908;SDS011;68298;37.368;127.108;2023-04-25T08:14:10;6.90;;;4.18;;
78908;SDS011;68298;37.368;127.108;2023-04-25T08:19:13;7.53;;;4.15;;
78908;SDS011;68298;37.368;127.108;2023-04-25T08:21:44;11.48;;;4.70;;
78908;SDS011;68298;37.368;127.108;2023-04-25T08:24:20;7.15;;;4.00;;
78908;SDS011;68298;37.368;127.108;2023-04-25T08:26:51;7.15;;;4.35;;
78908;SDS011;68298;37.368;127.108;2023-04-25T08:29:26;10.30;;;4.03;;
78908;SDS011;68298;37.368;127.108;2023-04-25T08:31:57;7.03;;;4.10;;
78908;SDS011;68298;37.368;127.108;2023-04-25T08:34:29;9.05;;;4.63;;
78908;SDS011;68298;37.368;127.108;2023-04-25T08:37:02;9.45;;;4.22;;
78908;SDS011;68298;37.368;127.108;2023-04-25T08:39:43;9.20;;;4.68;;
78908;SDS011;68298;37.368;127.108;2023-04-25T08:42:32;6.57;;;3.90;;
78908;SDS011;68298;37.368;127.108;2023-04-25T08:45:05;8.23;;;3.67;;
78908;SDS011;68298;37.368;127.108;2023-04-25T08:47:38;8.55;;;4.35;;
78908;SDS011;68298;37.368;127.108;2023-04-25T08:50:11;5.20;;;4.00;;
78908;SDS011;68298;37.368;127.108;2023-04-25T08:52:44;6.32;;;4.10;;
78908;SDS011;68298;37.368;127.108;2023-04-25T08:55:17;8.18;;;3.90;;
78908;SDS011;68298;37.368;127.108;2023-04-25T08:57:53;7.85;;;3.70;;
78908;SDS011;68298;37.368;127.108;2023-04-25T09:00:25;7.00;;;3.75;;
78908;SDS011;68298;37.368;127.108;2023-04-25T09:02:56;4.97;;;3.85;;
78908;SDS011;68298;37.368;127.108;2023-04-25T09:05:34;5.85;;;3.75;;
78908;SDS011;68298;37.368;127.108;2023-04-25T09:08:07;4.65;;;3.78;;
78908;SDS011;68298;37.368;127.108;2023-04-25T09:10:38;5.07;;;3.88;;
78908;SDS011;68298;37.368;127.108;2023-04-25T09:13:10;5.05;;;3.45;;
78908;SDS011;68298;37.368;127.108;2023-04-25T09:16:01;5.70;;;4.00;;
78908;SDS011;68298;37.368;127.108;2023-04-25T09:18:40;4.30;;;3.40;;
78908;SDS011;68298;37.368;127.108;2023-04-25T09:21:16;6.72;;;4.13;;
78908;SDS011;68298;37.368;127.108;2023-04-25T09:23:49;11.88;;;3.80;;
78908;SDS011;68298;37.368;127.108;2023-04-25T09:26:21;5.65;;;3.88;;
78908;SDS011;68298;37.368;127.108;2023-04-25T09:29:04;5.13;;;3.15;;
78908;SDS011;68298;37.368;127.108;2023-04-25T09:31:39;5.78;;;3.70;;
78908;SDS011;68298;37.368;127.108;2023-04-25T09:34:11;6.63;;;4.03;;
78908;SDS011;68298;37.368;127.108;2023-04-25T09:36:54;4.78;;;3.47;;
78908;SDS011;68298;37.368;127.108;2023-04-25T09:39:41;4.60;;;3.30;;
78908;SDS011;68298;37.368;127.108;2023-04-25T09:42:17;8.95;;;3.58;;
78908;SDS011;68298;37.368;127.108;2023-04-25T09:44:51;5.88;;;3.88;;
78908;SDS011;68298;37.368;127.108;2023-04-25T09:47:25;5.78;;;3.88;;
78908;SDS011;68298;37.368;127.108;2023-04-25T09:52:28;5.35;;;3.53;;
78908;SDS011;68298;37.368;127.108;2023-04-25T09:55:10;8.00;;;3.70;;
78908;SDS011;68298;37.368;127.108;2023-04-25T09:57:43;4.15;;;3.33;;
78908;SDS011;68298;37.368;127.108;2023-04-25T10:00:18;8.73;;;3.88;;
78908;SDS011;68298;37.368;127.108;2023-04-25T10:02:50;6.93;;;4.13;;
78908;SDS011;68298;37.368;127.108;2023-04-25T10:05:42;5.90;;;4.03;;
78908;SDS011;68298;37.368;127.108;2023-04-25T10:08:14;5.43;;;3.50;;
78908;SDS011;68298;37.368;127.108;2023-04-25T10:10:45;6.25;;;3.78;;
78908;SDS011;68298;37.368;127.108;2023-04-25T10:13:20;5.22;;;3.83;;
78908;SDS011;68298;37.368;127.108;2023-04-25T10:15:51;5.82;;;3.60;;
78908;SDS011;68298;37.368;127.108;2023-04-25T10:18:24;5.63;;;3.60;;
78908;SDS011;68298;37.368;127.108;2023-04-25T10:20:57;6.47;;;4.00;;
78908;SDS011;68298;37.368;127.108;2023-04-25T10:23:29;6.28;;;4.03;;
78908;SDS011;68298;37.368;127.108;2023-04-25T10:26:02;5.32;;;3.58;;
78908;SDS011;68298;37.368;127.108;2023-04-25T10:28:54;5.45;;;3.78;;
78908;SDS011;68298;37.368;127.108;2023-04-25T10:31:26;4.97;;;3.90;;
78908;SDS011;68298;37.368;127.108;2023-04-25T10:36:33;6.63;;;4.05;;
78908;SDS011;68298;37.368;127.108;2023-04-25T10:39:06;6.82;;;3.70;;
78908;SDS011;68298;37.368;127.108;2023-04-25T10:41:46;5.97;;;3.70;;
78908;SDS011;68298;37.368;127.108;2023-04-25T10:44:22;5.75;;;4.18;;
78908;SDS011;68298;37.368;127.108;2023-04-25T10:46:54;4.38;;;3.80;;
78908;SDS011;68298;37.368;127.108;2023-04-25T10:49:41;5.18;;;3.85;;
78908;SDS011;68298;37.368;127.108;2023-04-25T10:52:46;6.55;;;3.85;;
78908;SDS011;68298;37.368;127.108;2023-04-25T10:55:09;4.57;;;3.55;;
78908;SDS011;68298;37.368;127.108;2023-04-25T11:00:14;5.75;;;3.70;;
78908;SDS011;68298;37.368;127.108;2023-04-25T11:02:45;5.65;;;3.72;;
78908;SDS011;68298;37.368;127.108;2023-04-25T11:07:59;6.28;;;4.50;;
78908;SDS011;68298;37.368;127.108;2023-04-25T11:10:35;5.13;;;3.80;;
78908;SDS011;68298;37.368;127.108;2023-04-25T11:13:05;5.03;;;4.15;;
78908;SDS011;68298;37.368;127.108;2023-04-25T11:15:37;8.50;;;4.45;;
78908;SDS011;68298;37.368;127.108;2023-04-25T11:18:07;7.22;;;4.35;;
78908;SDS011;68298;37.368;127.108;2023-04-25T11:20:38;7.22;;;4.05;;
78908;SDS011;68298;37.368;127.108;2023-04-25T11:23:12;7.65;;;4.32;;
78908;SDS011;68298;37.368;127.108;2023-04-25T11:25:45;7.35;;;4.53;;
78908;SDS011;68298;37.368;127.108;2023-04-25T11:28:20;8.25;;;4.35;;
78908;SDS011;68298;37.368;127.108;2023-04-25T11:30:55;7.03;;;4.40;;
78908;SDS011;68298;37.368;127.108;2023-04-25T11:33:26;7.38;;;4.15;;
78908;SDS011;68298;37.368;127.108;2023-04-25T11:35:57;7.55;;;4.32;;
78908;SDS011;68298;37.368;127.108;2023-04-25T11:38:28;9.65;;;5.03;;
78908;SDS011;68298;37.368;127.108;2023-04-25T11:40:58;4.55;;;4.05;;
78908;SDS011;68298;37.368;127.108;2023-04-25T11:43:29;5.22;;;4.20;;
78908;SDS011;68298;37.368;127.108;2023-04-25T11:46:06;5.45;;;4.15;;
78908;SDS011;68298;37.368;127.108;2023-04-25T11:48:38;5.07;;;4.10;;
78908;SDS011;68298;37.368;127.108;2023-04-25T11:51:12;5.93;;;4.20;;
78908;SDS011;68298;37.368;127.108;2023-04-25T11:53:44;7.45;;;4.72;;
78908;SDS011;68298;37.368;127.108;2023-04-25T11:56:16;6.38;;;4.38;;
78908;SDS011;68298;37.368;127.108;2023-04-25T11:58:56;5.80;;;4.32;;
78908;SDS011;68298;37.368;127.108;2023-04-25T12:01:31;7.55;;;4.97;;
78908;SDS011;68298;37.368;127.108;2023-04-25T12:04:13;7.18;;;4.50;;
78908;SDS011;68298;37.368;127.108;2023-04-25T12:06:45;5.38;;;4.45;;
78908;SDS011;68298;37.368;127.108;2023-04-25T12:09:19;7.50;;;4.75;;
78908;SDS011;68298;37.368;127.108;2023-04-25T12:14:25;7.65;;;4.95;;
78908;SDS011;68298;37.368;127.108;2023-04-25T12:17:01;7.70;;;4.70;;
78908;SDS011;68298;37.368;127.108;2023-04-25T12:19:36;6.35;;;4.38;;
78908;SDS011;68298;37.368;127.108;2023-04-25T12:22:20;5.40;;;4.35;;
78908;SDS011;68298;37.368;127.108;2023-04-25T12:24:52;7.38;;;4.95;;
78908;SDS011;68298;37.368;127.108;2023-04-25T12:27:23;5.80;;;4.40;;
78908;SDS011;68298;37.368;127.108;2023-04-25T12:29:56;6.70;;;4.63;;
78908;SDS011;68298;37.368;127.108;2023-04-25T12:32:28;6.28;;;4.45;;
78908;SDS011;68298;37.368;127.108;2023-04-25T12:34:58;7.25;;;4.80;;
78908;SDS011;68298;37.368;127.108;2023-04-25T12:37:29;8.32;;;4.28;;
78908;SDS011;68298;37.368;127.108;2023-04-25T12:39:59;7.80;;;5.05;;
78908;SDS011;68298;37.368;127.108;2023-04-25T12:42:30;8.02;;;5.05;;
78908;SDS011;68298;37.368;127.108;2023-04-25T12:45:01;5.85;;;4.60;;
78908;SDS011;68298;37.368;127.108;2023-04-25T12:47:31;7.10;;;4.80;;
78908;SDS011;68298;37.368;127.108;2023-04-25T12:50:04;8.93;;;5.00;;
78908;SDS011;68298;37.368;127.108;2023-04-25T12:52:35;6.97;;;4.78;;
78908;SDS011;68298;37.368;127.108;2023-04-25T12:55:07;7.68;;;4.88;;
78908;SDS011;68298;37.368;127.108;2023-04-25T12:57:37;6.65;;;5.07;;
78908;SDS011;68298;37.368;127.108;2023-04-25T13:00:08;7.85;;;4.97;;
78908;SDS011;68298;37.368;127.108;2023-04-25T13:02:43;7.20;;;4.72;;
78908;SDS011;68298;37.368;127.108;2023-04-25T13:05:14;6.40;;;4.72;;
78908;SDS011;68298;37.368;127.108;2023-04-25T13:07:45;6.45;;;4.78;;
78908;SDS011;68298;37.368;127.108;2023-04-25T13:10:16;6.78;;;4.85;;
78908;SDS011;68298;37.368;127.108;2023-04-25T13:12:47;8.60;;;5.00;;
78908;SDS011;68298;37.368;127.108;2023-04-25T13:15:17;8.88;;;5.35;;
78908;SDS011;68298;37.368;127.108;2023-04-25T13:17:49;6.50;;;5.10;;
78908;SDS011;68298;37.368;127.108;2023-04-25T13:20:19;6.30;;;5.03;;
78908;SDS011;68298;37.368;127.108;2023-04-25T13:22:52;5.82;;;4.60;;
78908;SDS011;68298;37.368;127.108;2023-04-25T13:25:25;7.47;;;5.15;;
78908;SDS011;68298;37.368;127.108;2023-04-25T13:27:56;7.57;;;4.40;;
78908;SDS011;68298;37.368;127.108;2023-04-25T13:30:26;7.88;;;5.07;;
78908;SDS011;68298;37.368;127.108;2023-04-25T13:32:58;6.05;;;5.18;;
78908;SDS011;68298;37.368;127.108;2023-04-25T13:35:32;7.57;;;5.20;;
78908;SDS011;68298;37.368;127.108;2023-04-25T13:38:04;7.18;;;4.72;;
78908;SDS011;68298;37.368;127.108;2023-04-25T13:40:36;6.75;;;4.70;;
78908;SDS011;68298;37.368;127.108;2023-04-25T13:43:06;8.57;;;5.47;;
78908;SDS011;68298;37.368;127.108;2023-04-25T13:45:37;7.68;;;5.07;;
78908;SDS011;68298;37.368;127.108;2023-04-25T13:48:09;6.95;;;5.00;;
78908;SDS011;68298;37.368;127.108;2023-04-25T13:50:40;8.10;;;5.22;;
78908;SDS011;68298;37.368;127.108;2023-04-25T13:53:10;9.63;;;5.50;;
78908;SDS011;68298;37.368;127.108;2023-04-25T13:55:42;8.10;;;5.20;;
78908;SDS011;68298;37.368;127.108;2023-04-25T13:58:12;7.55;;;5.40;;
78908;SDS011;68298;37.368;127.108;2023-04-25T14:00:42;6.18;;;4.90;;
78908;SDS011;68298;37.368;127.108;2023-04-25T14:03:15;7.90;;;5.15;;
78908;SDS011;68298;37.368;127.108;2023-04-25T14:05:45;7.07;;;5.28;;
78908;SDS011;68298;37.368;127.108;2023-04-25T14:08:16;8.50;;;5.07;;
78908;SDS011;68298;37.368;127.108;2023-04-25T14:10:47;7.18;;;5.30;;
78908;SDS011;68298;37.368;127.108;2023-04-25T14:13:18;7.47;;;5.38;;
78908;SDS011;68298;37.368;127.108;2023-04-25T14:15:49;7.30;;;4.97;;
78908;SDS011;68298;37.368;127.108;2023-04-25T14:18:19;8.00;;;4.95;;
78908;SDS011;68298;37.368;127.108;2023-04-25T14:20:50;7.72;;;5.57;;
78908;SDS011;68298;37.368;127.108;2023-04-25T14:23:20;6.90;;;5.32;;
78908;SDS011;68298;37.368;127.108;2023-04-25T14:25:50;8.07;;;5.57;;
78908;SDS011;68298;37.368;127.108;2023-04-25T14:28:22;7.43;;;5.25;;
78908;SDS011;68298;37.368;127.108;2023-04-25T14:30:52;9.52;;;5.13;;
78908;SDS011;68298;37.368;127.108;2023-04-25T14:33:24;5.88;;;4.90;;
78908;SDS011;68298;37.368;127.108;2023-04-25T14:35:54;9.85;;;5.60;;
78908;SDS011;68298;37.368;127.108;2023-04-25T14:38:25;7.30;;;4.97;;
78908;SDS011;68298;37.368;127.108;2023-04-25T14:40:55;6.80;;;5.30;;
78908;SDS011;68298;37.368;127.108;2023-04-25T14:43:26;8.57;;;5.05;;
78908;SDS011;68298;37.368;127.108;2023-04-25T14:45:56;8.57;;;5.32;;
78908;SDS011;68298;37.368;127.108;2023-04-25T14:48:27;7.50;;;5.47;;
78908;SDS011;68298;37.368;127.108;2023-04-25T14:50:59;7.95;;;5.72;;
78908;SDS011;68298;37.368;127.108;2023-04-25T14:53:30;10.32;;;5.50;;
78908;SDS011;68298;37.368;127.108;2023-04-25T14:56:01;8.25;;;5.45;;
78908;SDS011;68298;37.368;127.108;2023-04-25T14:58:32;7.18;;;5.35;;
78908;SDS011;68298;37.368;127.108;2023-04-25T15:01:02;7.03;;;5.60;;
78908;SDS011;68298;37.368;127.108;2023-04-25T15:03:33;8.02;;;5.72;;
78908;SDS011;68298;37.368;127.108;2023-04-25T15:06:04;8.25;;;5.13;;
78908;SDS011;68298;37.368;127.108;2023-04-25T15:08:38;7.80;;;5.10;;
78908;SDS011;68298;37.368;127.108;2023-04-25T15:11:08;6.45;;;5.25;;
78908;SDS011;68298;37.368;127.108;2023-04-25T15:13:40;7.40;;;6.07;;